Terminal Aerodrome Forecast
Issued by NWS Dallas/Fort Worth, TX

Home | Current Version | Previous Version | Text Only | Print | Product List | Glossary On
Versions: 1 2 3 4 5 6 7 8 9 10 11 12 13 14 15 16 17 18 19 20 21 22 23 24 25
000
FTUS44 KFWD 252300
TAFDFW
TAF
KDFW 252324Z 2600/2706 17017KT P6SM SCT250
     FM261000 17013KT P6SM OVC015
     FM261700 17015KT P6SM BKN022
     FM270000 16008KT P6SM OVC014=

USA.gov is the U.S. government's official web portal to all federal, state and local government web resources and services.